Terminal Aerodrome Forecast
Issued by NWS

Home | Current Version | Previous Version | Text Only | Print | Product List | Glossary Off
Versions: 1 2 3 4 5 6 7 8 9 10 11 12 13 14 15 16

000
FTUS43 KMPX 281120
TAFAXN
TAF
KAXN 281120Z 2812/0112 18009KT P6SM SCT250
     FM281800 18014G21KT P6SM SCT040 BKN070
     FM010000 19011KT P6SM BKN025 OVC040
     FM010800 27008KT P6SM SCT025 BKN150=

USA.gov is the U.S. government's official web portal to all federal, state and local government web resources and services.